createdAt,value
2023-04-12T00:03:46.593Z,3.00
2023-04-12T00:16:46.525Z,2.90
2023-04-12T00:29:46.491Z,2.45
2023-04-12T00:42:46.515Z,2.50
2023-04-12T00:55:46.517Z,2.40
2023-04-12T01:08:46.515Z,2.40
2023-04-12T01:21:46.508Z,2.40
2023-04-12T01:34:46.533Z,3.00
2023-04-12T01:47:46.573Z,2.45
2023-04-12T02:00:46.596Z,2.40
2023-04-12T02:13:46.561Z,2.40
2023-04-12T02:26:46.589Z,2.30
2023-04-12T02:39:46.605Z,1.90
2023-04-12T02:52:46.573Z,2.40
2023-04-12T03:05:46.597Z,2.05
2023-04-12T03:18:46.586Z,2.20
2023-04-12T03:31:46.598Z,2.00
2023-04-12T03:44:46.615Z,2.60
2023-04-12T03:57:46.595Z,2.30
2023-04-12T04:10:46.710Z,2.10
2023-04-12T04:23:46.603Z,2.30
2023-04-12T04:37:46.625Z,1.85
2023-04-12T04:51:46.616Z,2.20
2023-04-12T05:05:46.695Z,2.30
2023-04-12T05:19:46.658Z,2.70
2023-04-12T05:33:46.687Z,2.50
2023-04-12T05:47:46.731Z,2.10
2023-04-12T06:01:46.903Z,2.10
2023-04-12T06:15:46.886Z,3.70
2023-04-12T06:29:46.743Z,3.10
2023-04-12T06:57:46.727Z,2.90
2023-04-12T07:11:46.734Z,3.10
2023-04-12T07:25:46.769Z,3.50
2023-04-12T07:39:46.815Z,3.30
2023-04-12T07:53:46.793Z,3.40
2023-04-12T08:07:46.786Z,3.40
2023-04-12T08:21:46.800Z,16.00
2023-04-12T08:35:46.817Z,9.90
2023-04-12T08:49:46.806Z,7.50
2023-04-12T09:03:47.112Z,5.50
2023-04-12T09:17:46.938Z,4.80
2023-04-12T09:31:46.900Z,4.60
2023-04-12T09:45:46.943Z,3.30
2023-04-12T09:57:46.877Z,4.40
2023-04-12T10:11:46.911Z,3.70
2023-04-12T10:25:46.874Z,6.30
2023-04-12T10:39:46.895Z,7.60
2023-04-12T10:53:47.008Z,5.60
2023-04-12T11:07:46.932Z,22.75
2023-04-12T11:21:46.910Z,25.00
2023-04-12T11:35:46.948Z,30.40
2023-04-12T11:49:46.954Z,42.90
2023-04-12T12:03:47.135Z,38.70
2023-04-12T12:17:46.993Z,33.70
2023-04-12T12:31:47.058Z,27.20
2023-04-12T12:45:47.017Z,25.80
2023-04-12T12:59:47.007Z,22.80
2023-04-12T13:13:47.003Z,22.70
2023-04-12T13:27:47.027Z,21.40
2023-04-12T13:41:47.044Z,21.90
2023-04-12T13:55:47.089Z,22.70
2023-04-12T14:09:47.246Z,19.90
2023-04-12T14:23:47.241Z,18.70
2023-04-12T14:37:47.858Z,17.10
2023-04-12T14:51:47.116Z,17.50
2023-04-12T15:05:47.145Z,15.60
2023-04-12T15:19:47.368Z,14.00
2023-04-12T15:33:47.177Z,14.20
2023-04-12T15:47:47.232Z,12.70
2023-04-12T16:01:47.288Z,15.00
2023-04-12T16:15:47.208Z,12.10
2023-04-12T16:29:47.238Z,13.20
2023-04-12T16:42:47.247Z,10.10
2023-04-12T16:56:47.267Z,10.50
2023-04-12T17:10:47.474Z,11.40
2023-04-12T17:24:47.278Z,10.40
2023-04-12T17:37:47.279Z,14.00
2023-04-12T17:51:47.308Z,16.70
2023-04-12T18:05:47.317Z,13.60
2023-04-12T18:19:47.321Z,14.55
2023-04-12T18:32:47.362Z,13.60
2023-04-12T18:45:47.364Z,11.90
2023-04-12T19:11:47.899Z,11.90
2023-04-12T19:24:47.830Z,11.20
2023-04-12T19:37:47.460Z,10.85
2023-04-12T19:50:47.465Z,10.40
2023-04-12T20:03:47.790Z,9.90
2023-04-12T20:16:48.020Z,9.70
2023-04-12T20:29:47.916Z,8.80
2023-04-12T20:42:47.518Z,8.70
2023-04-12T20:55:47.434Z,9.70
2023-04-12T21:08:47.476Z,10.50
2023-04-12T21:21:47.694Z,8.00
2023-04-12T21:34:47.487Z,8.55
2023-04-12T21:47:47.520Z,8.90
2023-04-12T22:00:47.555Z,7.60
2023-04-12T22:13:47.519Z,7.60
2023-04-12T22:26:47.505Z,7.00
2023-04-12T22:39:47.530Z,6.70
2023-04-12T22:52:47.532Z,6.95
2023-04-12T23:02:47.574Z,6.70
2023-04-12T23:15:47.560Z,5.60
2023-04-12T23:28:47.557Z,6.40
2023-04-12T23:41:47.558Z,5.60
2023-04-12T23:54:47.587Z,5.40
